Aeroporto :
LOGIN :

Iscrizione | Disclaimer

   EN    FR    IT 

 










Sommario :    VFR   VFR Marginale   IFR   IFR Intensivo   IFR Molto Intensivo
Visibilità : 
Base nubi : 
>= 8 km
>= 3000ft
5 / 8 km
1000 / 3000 ft
1500m / 5 km
500 / 1000 ft
800 / 1500m
200 / 500 ft
< 800m
< 200 ft
Simboli :   Temporali  Nebbia  Neve Forte  Precipitazioni Forti  Vento > 20 kt
SIGMETs :   Varie  Temporali  Ghiacco  Turbolenza  Onda orograficha  Ceneri Vulcaniche






- Altitudine del aeroporto : 14 ft
- Codice IATA : BRE


EDDW - Bremen Neuenland

ULTIMO METAR :
  • 202350Z AUTO 28012KT 9999 BKN011 OVC015 OVC033 11/10 Q1015

METARs OBSOLETI :
  • 202320Z AUTO 27015KT 7000 FEW009 BKN016 BKN025 11/10 Q1015
  • 202250Z AUTO 29015KT 9999 -RA SCT012 BKN034 OVC043 12/10 Q1015
  • 202220Z AUTO 29014KT 9999 BKN014 BKN024 OVC034 12/10 Q1014
  • 202150Z AUTO 30014KT 9999 SCT010 BKN029 13/11 Q1014
  • 202120Z AUTO 29013KT 9999 -DZ BKN009 BKN014 OVC019 12/11 Q1013 TEMPO 32015G25KT SCT010

TAF TAF EDDW
Valido dal 21 a 00 ore il 22 a 00 ore UTC


202300Z 2100/2124 25012KT 9999 BKN030
PROB30
TEMPO 2100/2101 28015G25KT BKN007
TEMPO 2101/2109 4000 SHRA SCT007 BKN012CB
BECMG 2106/2109 27015G25KT
TEMPO 2109/2116 29020G35KT
BECMG 2116/2119 31010KT
BECMG 2119/2122 28005KT



MetMap, La meteo Aeronautica in un colpo d'occhio ! - Copyright ORBIFLY Dicembre 2007 - Disclaimer

ORBIFLY MET'MAP TEAM :

Programmazione e sviluppo : Alexandra Zaïnal
Concezione : Baudouin d'Aumeries
Supporto tecnico e logistico : Manuel Goepfert
Aiuto : Marc-Olivier Méhu
Aiuto per la traduzione : Arnaldo La Scala

Contatto : metmap@orbifly.com




FONTI E CREDITI :

   NOAA